Terminal Aerodrome Forecast
Issued by NWS

Home | Current Version | Previous Version | Graphics & Text | Print | Product List | Glossary On
Versions: 1 2 3 4 5 6 7 8 9 10 11 12 13 14
000
FTUS41 KCLE 250200 AAA
TAFFDY
TAF AMD
KFDY 250249Z 2503/2524 26018G32KT P6SM OVC015
      TEMPO 2504/2508 4SM -RASN
     FM250800 25015G30KT P6SM OVC015
     FM251100 25012G22KT P6SM OVC020
     FM251400 26012G24KT P6SM OVC025=

USA.gov is the U.S. government's official web portal to all federal, state and local government web resources and services.